Accueil
METAR-TAF:

METAR-TAF

Aéroports :

Aigen im Ennstal, Autriche

latitude: 47-32N, longitude: 014-08E, altitude: 638 m

METAR: absent

Heure: 00:00 (23:00 UTC)

Prévision

Le bulletin a été fait il y a 11 heures et 45 minutes, à 11:15 UTC
Prévision valable du 03 à 12 UTC au 03 à 21 UTC
Vent 4 kt de direction variable
Visibilité 10 km ou plus
Quelques nuages à une hauteur de 1800 ft
Nuages épars à une hauteur de 5000 ft
Nuages fragmentés à une hauteur de 25000 ft

TAF: LOXA 031115Z 0312/0321 VRB04KT 9999 FEW018 SCT050 BKN250

Observations et prévisions météorologiques de plus de 4000 aéroports (messages METAR et TAF).

Les stations disponibles sont représentées par des disques jaunes et rouges sur la carte.

Passer la souris dessus pour voir le nom de la station.

Cliquer dessus pour voir les observations et prévisions météorologiques.

Pour changer de carte: cliquez sur les boutons verts avec une croix noire pour zoomer, sur le bouton vert avec un tiret pour effectuer un zoom arrière, ou sur les flèches vertes pour les cartes adjacentes.


METAR-TAF: